createdAt,value
2019-05-09T00:00:26.064Z,75.8
2019-05-09T00:01:15.215Z,75.9
2019-05-09T00:02:03.341Z,75.9
2019-05-09T00:02:50.654Z,75.5
2019-05-09T00:03:38.883Z,75.4
2019-05-09T00:04:33.474Z,75.2
2019-05-09T00:05:24.818Z,75.1
2019-05-09T00:06:08.934Z,75.1
2019-05-09T00:06:16.683Z,75.1
2019-05-09T00:06:54.717Z,75.3
2019-05-09T00:07:43.936Z,74.9
2019-05-09T00:08:36.523Z,75.0
2019-05-09T00:09:25.584Z,75.0
2019-05-09T00:10:14.207Z,75.0
2019-05-09T00:11:03.499Z,75.1
2019-05-09T00:11:49.457Z,75.0
2019-05-09T00:12:43.752Z,75.0
2019-05-09T00:13:33.952Z,75.1
2019-05-09T00:14:19.419Z,74.8
2019-05-09T00:15:07.645Z,75.0
2019-05-09T00:15:55.846Z,75.0
2019-05-09T00:16:49.473Z,75.2
2019-05-09T00:17:40.374Z,75.1
2019-05-09T00:18:25.857Z,75.0
2019-05-09T00:18:30.034Z,75.0
2019-05-09T00:19:08.362Z,75.0
2019-05-09T00:19:56.559Z,75.1
2019-05-09T00:20:50.157Z,75.0
2019-05-09T00:21:39.196Z,75.0
2019-05-09T00:22:26.608Z,75.0
2019-05-09T00:23:14.817Z,74.9
2019-05-09T00:24:03.656Z,74.7
2019-05-09T00:24:56.585Z,74.8
2019-05-09T00:25:46.211Z,74.6
2019-05-09T00:26:33.933Z,74.6
2019-05-09T00:27:23.126Z,74.7
2019-05-09T00:28:09.482Z,74.5
2019-05-09T00:29:03.796Z,74.6
2019-05-09T00:29:53.132Z,74.5
2019-05-09T00:30:39.475Z,74.5
2019-05-09T00:31:27.694Z,74.4
2019-05-09T00:32:15.913Z,74.2
2019-05-09T00:33:09.529Z,74.0
2019-05-09T00:33:59.362Z,73.9
2019-05-09T00:34:45.921Z,73.9
2019-05-09T00:35:34.142Z,73.9
2019-05-09T00:36:23.227Z,74.0
2019-05-09T00:36:38.183Z,74.0
2019-05-09T00:37:13.512Z,74.0
2019-05-09T00:38:04.112Z,74.0
2019-05-09T00:38:49.178Z,73.8
2019-05-09T00:39:37.398Z,74.0
2019-05-09T00:40:25.585Z,73.8
2019-05-09T00:41:19.168Z,73.7
2019-05-09T00:42:08.230Z,73.8
2019-05-09T00:42:55.604Z,74.0
2019-05-09T00:43:43.885Z,73.9
2019-05-09T00:44:33.869Z,73.8
2019-05-09T00:45:25.615Z,73.8
2019-05-09T00:46:14.688Z,73.9
2019-05-09T00:47:04.079Z,74.0
2019-05-09T00:47:50.296Z,74.1
2019-05-09T00:48:38.514Z,74.2
2019-05-09T00:49:34.091Z,74.4
2019-05-09T00:50:23.435Z,74.4
2019-05-09T00:51:08.537Z,74.4
2019-05-09T00:51:56.715Z,74.4
2019-05-09T00:52:44.955Z,74.5
2019-05-09T00:53:38.532Z,74.6
2019-05-09T00:54:27.538Z,74.7
2019-05-09T00:55:14.957Z,74.8
2019-05-09T00:56:04.232Z,74.9
2019-05-09T00:56:53.799Z,75.1
2019-05-09T00:57:44.978Z,75.0
2019-05-09T00:58:34.035Z,74.9
2019-05-09T00:59:21.389Z,75.0
2019-05-09T01:00:09.670Z,75.0
2019-05-09T01:00:57.811Z,75.1
2019-05-09T01:01:51.431Z,75.2
2019-05-09T01:02:40.468Z,75.1
2019-05-09T01:03:27.820Z,75.4
2019-05-09T01:04:16.047Z,75.6
2019-05-09T01:05:04.444Z,75.5
2019-05-09T01:05:57.867Z,75.3
2019-05-09T01:06:47.195Z,75.3
2019-05-09T01:07:34.258Z,75.5
2019-05-09T01:08:24.163Z,75.5
2019-05-09T01:09:10.699Z,75.6
2019-05-09T01:10:04.479Z,75.6
2019-05-09T01:11:08.202Z,75.6
2019-05-09T01:11:40.727Z,75.5
2019-05-09T01:12:28.906Z,75.5
2019-05-09T01:13:17.116Z,75.4
2019-05-09T01:14:10.696Z,75.5
2019-05-09T01:14:59.827Z,75.6
2019-05-09T01:15:47.190Z,75.8
2019-05-09T01:16:35.352Z,75.7
2019-05-09T01:17:24.138Z,75.7
2019-05-09T01:18:17.140Z,75.7
2019-05-09T01:19:06.434Z,75.8
2019-05-09T01:19:53.923Z,75.8
2019-05-09T01:20:43.897Z,75.8
2019-05-09T01:21:29.994Z,75.9
2019-05-09T01:22:23.700Z,76.0
2019-05-09T01:23:14.273Z,76.1
2019-05-09T01:23:59.984Z,75.4
2019-05-09T01:24:48.206Z,75.6
2019-05-09T01:25:36.444Z,75.5
2019-05-09T01:26:29.999Z,75.4
2019-05-09T01:27:19.051Z,75.4
2019-05-09T01:28:06.401Z,75.5
2019-05-09T01:28:54.654Z,75.3
2019-05-09T01:29:43.958Z,75.3
2019-05-09T01:30:36.412Z,75.3
2019-05-09T01:31:25.473Z,75.2
2019-05-09T01:32:14.439Z,75.1
2019-05-09T01:33:03.622Z,75.2
2019-05-09T01:33:49.298Z,75.3
2019-05-09T01:34:43.679Z,75.5
2019-05-09T01:35:33.868Z,75.5
2019-05-09T01:36:19.264Z,75.3
2019-05-09T01:37:07.478Z,75.4
2019-05-09T01:37:55.677Z,75.3
2019-05-09T01:38:49.240Z,75.0
2019-05-09T01:39:38.382Z,75.1
2019-05-09T01:40:25.664Z,75.0
2019-05-09T01:41:27.179Z,75.0
2019-05-09T01:42:03.260Z,75.2
2019-05-09T01:42:55.676Z,75.1
2019-05-09T01:43:44.800Z,75.0
2019-05-09T01:44:33.481Z,75.0
2019-05-09T01:45:20.290Z,75.0
2019-05-09T01:46:08.501Z,75.1
2019-05-09T01:47:03.727Z,75.0
2019-05-09T01:47:51.144Z,74.9
2019-05-09T01:48:38.531Z,74.8
2019-05-09T01:49:26.755Z,74.9
2019-05-09T01:50:14.924Z,74.9
2019-05-09T01:51:08.533Z,75.1
2019-05-09T01:51:57.656Z,75.2
2019-05-09T01:52:44.965Z,75.0
2019-05-09T01:53:33.496Z,75.2
2019-05-09T01:54:23.582Z,75.2
2019-05-09T01:55:14.922Z,75.2
2019-05-09T01:56:03.979Z,75.3
2019-05-09T01:56:53.595Z,75.4
2019-05-09T01:57:39.574Z,75.4
2019-05-09T01:58:27.769Z,75.5
2019-05-09T01:59:21.144Z,75.5
2019-05-09T02:00:09.911Z,75.6
2019-05-09T02:00:57.569Z,75.7
2019-05-09T02:01:45.775Z,75.8
2019-05-09T02:02:34.001Z,75.9
2019-05-09T02:03:27.755Z,76.0
2019-05-09T02:04:16.394Z,76.1
2019-05-09T02:05:04.224Z,76.3
2019-05-09T02:05:53.154Z,76.4
2019-05-09T02:06:06.633Z,76.4
2019-05-09T02:06:36.112Z,76.5
2019-05-09T02:07:29.679Z,76.4
2019-05-09T02:08:18.465Z,76.7
2019-05-09T02:09:06.110Z,76.9
2019-05-09T02:09:54.278Z,77.0
2019-05-09T02:10:44.156Z,77.0
2019-05-09T02:11:42.369Z,77.0
2019-05-09T02:12:24.877Z,77.2
2019-05-09T02:13:13.665Z,77.3
2019-05-09T02:14:00.722Z,77.4
2019-05-09T02:14:48.947Z,77.6
2019-05-09T02:15:43.422Z,77.7
2019-05-09T02:16:33.650Z,77.7
2019-05-09T02:17:18.955Z,77.6
2019-05-09T02:18:07.157Z,77.8
2019-05-09T02:18:55.352Z,77.9
2019-05-09T02:19:48.924Z,77.9
2019-05-09T02:20:37.703Z,78.0
2019-05-09T02:21:25.357Z,78.0
2019-05-09T02:22:13.559Z,78.2
2019-05-09T02:23:03.713Z,78.2
2019-05-09T02:23:55.369Z,78.5
2019-05-09T02:24:14.129Z,78.5
2019-05-09T02:24:44.053Z,78.4
2019-05-09T02:25:29.910Z,78.6
2019-05-09T02:26:18.129Z,78.3
2019-05-09T02:27:06.323Z,78.7
2019-05-09T02:27:59.908Z,78.5
2019-05-09T02:28:48.771Z,78.5
2019-05-09T02:29:36.323Z,78.4
2019-05-09T02:30:25.528Z,78.2
2019-05-09T02:31:16.126Z,78.3
2019-05-09T02:32:06.334Z,78.4
2019-05-09T02:32:55.389Z,78.4
2019-05-09T02:33:45.650Z,78.4
2019-05-09T02:34:30.935Z,78.5
2019-05-09T02:35:19.182Z,78.7
2019-05-09T02:36:12.719Z,78.6
2019-05-09T02:37:01.502Z,78.8
2019-05-09T02:37:49.969Z,78.8
2019-05-09T02:38:39.236Z,78.6
2019-05-09T02:39:25.540Z,78.7
2019-05-09T02:40:19.117Z,78.7
2019-05-09T02:41:11.411Z,78.7
2019-05-09T02:42:07.694Z,78.8
2019-05-09T02:42:43.751Z,78.8
2019-05-09T02:43:31.934Z,79.0
2019-05-09T02:44:28.745Z,78.9
2019-05-09T02:45:15.211Z,78.8
2019-05-09T02:46:01.919Z,78.9
2019-05-09T02:46:50.124Z,78.9
2019-05-09T02:47:38.837Z,78.9
2019-05-09T02:48:31.888Z,79.0
2019-05-09T02:49:20.647Z,78.9
2019-05-09T02:50:09.334Z,79.0
2019-05-09T02:50:59.826Z,78.9
2019-05-09T02:51:44.717Z,79.0
2019-05-09T02:52:39.686Z,79.0
2019-05-09T02:53:28.919Z,79.1
2019-05-09T02:54:14.709Z,79.3
2019-05-09T02:55:02.887Z,79.2
2019-05-09T02:55:51.100Z,79.0
2019-05-09T02:56:44.679Z,79.0
2019-05-09T02:57:33.429Z,79.0
2019-05-09T02:58:21.068Z,79.1
2019-05-09T02:59:09.985Z,79.1
2019-05-09T02:59:59.204Z,79.1
2019-05-09T03:00:51.059Z,79.2
2019-05-09T03:01:39.843Z,79.1
2019-05-09T03:02:28.893Z,79.2
2019-05-09T03:03:15.660Z,79.2
2019-05-09T03:04:03.900Z,79.2
2019-05-09T03:04:58.143Z,79.2
2019-05-09T03:05:48.785Z,79.2
2019-05-09T03:06:33.858Z,79.1
2019-05-09T03:07:22.053Z,79.0
2019-05-09T03:08:10.302Z,79.2
2019-05-09T03:09:03.839Z,79.0
2019-05-09T03:09:53.061Z,79.0
2019-05-09T03:10:40.253Z,78.9
2019-05-09T03:11:29.113Z,78.8
2019-05-09T03:12:26.794Z,78.9
2019-05-09T03:13:10.269Z,78.9
2019-05-09T03:13:59.034Z,78.9
2019-05-09T03:14:48.698Z,79.1
2019-05-09T03:15:34.884Z,78.8
2019-05-09T03:16:23.087Z,78.8
2019-05-09T03:17:18.583Z,78.8
2019-05-09T03:18:08.547Z,79.1
2019-05-09T03:18:21.424Z,79.1
2019-05-09T03:18:50.931Z,79.1
2019-05-09T03:19:39.136Z,79.0
2019-05-09T03:20:28.849Z,79.0
2019-05-09T03:21:20.901Z,78.9
2019-05-09T03:22:09.673Z,79.1
2019-05-09T03:22:58.312Z,79.1
2019-05-09T03:23:48.704Z,79.0
2019-05-09T03:24:33.738Z,78.9
2019-05-09T03:25:28.921Z,78.8
2019-05-09T03:26:19.190Z,78.8
2019-05-09T03:27:03.723Z,78.9
2019-05-09T03:27:51.916Z,79.0
2019-05-09T03:28:40.123Z,79.2
2019-05-09T03:29:33.695Z,79.5
2019-05-09T03:30:22.460Z,79.4
2019-05-09T03:31:10.157Z,79.6
2019-05-09T03:32:00.067Z,79.6
2019-05-09T03:32:49.035Z,79.5
2019-05-09T03:33:40.782Z,79.7
2019-05-09T03:34:30.134Z,79.6
2019-05-09T03:35:17.234Z,79.6
2019-05-09T03:36:04.684Z,79.6
2019-05-09T03:36:52.883Z,79.7
2019-05-09T03:37:14.698Z,79.7
2019-05-09T03:37:40.414Z,79.7
2019-05-09T03:38:29.179Z,79.8
2019-05-09T03:39:18.522Z,79.8
2019-05-09T03:40:05.027Z,79.8
2019-05-09T03:40:53.222Z,79.9
2019-05-09T03:41:48.780Z,80.1
2019-05-09T03:42:41.113Z,80.0
2019-05-09T03:43:23.208Z,80.0
2019-05-09T03:44:11.393Z,80.2
2019-05-09T03:44:59.611Z,80.3
2019-05-09T03:45:53.150Z,80.3
2019-05-09T03:46:41.951Z,80.3
2019-05-09T03:47:29.561Z,80.5
2019-05-09T03:48:18.072Z,80.4
2019-05-09T03:49:07.540Z,80.3
2019-05-09T03:49:59.525Z,80.3
2019-05-09T03:50:48.748Z,80.3
2019-05-09T03:51:37.923Z,80.5
2019-05-09T03:52:24.171Z,80.7
2019-05-09T03:53:12.349Z,80.8
2019-05-09T03:54:08.052Z,80.8
2019-05-09T03:54:54.790Z,80.9
2019-05-09T03:55:42.309Z,80.8
2019-05-09T03:56:30.513Z,80.8
2019-05-09T03:57:18.697Z,80.7
2019-05-09T03:58:12.259Z,80.7
2019-05-09T03:59:01.849Z,80.8
2019-05-09T03:59:48.675Z,80.7
2019-05-09T04:00:37.575Z,80.6
2019-05-09T04:01:25.045Z,80.6
2019-05-09T04:02:18.647Z,80.9
2019-05-09T04:03:08.133Z,80.8
2019-05-09T04:03:55.016Z,80.7
2019-05-09T04:04:43.230Z,80.8
2019-05-09T04:05:31.413Z,80.8
2019-05-09T04:06:24.994Z,80.9
2019-05-09T04:07:13.802Z,80.9
2019-05-09T04:08:01.376Z,80.7
2019-05-09T04:08:49.578Z,80.9
2019-05-09T04:09:39.670Z,81.0
2019-05-09T04:10:31.333Z,81.0
2019-05-09T04:11:20.131Z,81.2
2019-05-09T04:12:07.752Z,81.0
2019-05-09T04:12:59.315Z,80.8
2019-05-09T04:13:44.171Z,81.0
2019-05-09T04:14:37.711Z,81.1
2019-05-09T04:15:27.493Z,81.3
2019-05-09T04:16:14.103Z,81.0
2019-05-09T04:17:02.320Z,81.0
2019-05-09T04:17:50.505Z,81.0
2019-05-09T04:18:44.051Z,81.1
2019-05-09T04:19:32.903Z,81.1
2019-05-09T04:20:20.489Z,81.2
2019-05-09T04:21:08.666Z,81.3
2019-05-09T04:21:57.568Z,81.2
2019-05-09T04:22:50.453Z,81.1
2019-05-09T04:23:39.195Z,80.9
2019-05-09T04:24:27.938Z,80.9
2019-05-09T04:25:15.259Z,80.9
2019-05-09T04:26:03.238Z,80.9
2019-05-09T04:26:57.539Z,81.0
2019-05-09T04:27:47.904Z,80.9
2019-05-09T04:28:33.242Z,80.8
2019-05-09T04:29:21.421Z,80.8
2019-05-09T04:30:09.668Z,80.7
2019-05-09T04:31:03.195Z,80.8
2019-05-09T04:31:52.022Z,80.9
2019-05-09T04:32:39.602Z,81.0
2019-05-09T04:33:28.035Z,81.0
2019-05-09T04:34:18.101Z,81.1
2019-05-09T04:35:09.577Z,80.9
2019-05-09T04:35:58.327Z,80.9
2019-05-09T04:36:48.192Z,80.6
2019-05-09T04:37:34.178Z,80.5
2019-05-09T04:38:22.384Z,80.6
2019-05-09T04:39:23.644Z,80.6
2019-05-09T04:40:04.703Z,80.4
2019-05-09T04:40:52.347Z,80.1
2019-05-09T04:41:40.551Z,80.0
2019-05-09T04:42:28.741Z,80.0
2019-05-09T04:43:14.042Z,80.0
2019-05-09T04:43:26.688Z,79.7
2019-05-09T04:44:16.592Z,79.8
2019-05-09T04:44:57.447Z,79.6
2019-05-09T04:45:42.828Z,79.3
2019-05-09T04:46:31.037Z,78.8
2019-05-09T04:47:24.591Z,78.8
2019-05-09T04:48:20.332Z,79.0
2019-05-09T04:49:02.599Z,78.9
2019-05-09T04:49:49.250Z,78.6
2019-05-09T04:50:37.851Z,78.7
2019-05-09T04:51:19.125Z,78.7
2019-05-09T04:51:28.376Z,78.7
2019-05-09T04:52:15.411Z,78.5
2019-05-09T04:53:03.080Z,78.5
2019-05-09T04:53:51.274Z,78.6
2019-05-09T04:54:39.514Z,78.7
2019-05-09T04:55:33.060Z,78.7
2019-05-09T04:56:21.855Z,78.8
2019-05-09T04:57:09.471Z,78.6
2019-05-09T04:58:00.079Z,78.9
2019-05-09T04:58:48.031Z,78.7
2019-05-09T04:59:39.435Z,78.8
2019-05-09T05:00:28.184Z,78.9
2019-05-09T05:01:19.612Z,78.3
2019-05-09T05:02:04.040Z,78.3
2019-05-09T05:02:52.239Z,78.0
2019-05-09T05:03:47.921Z,78.1
2019-05-09T05:04:34.632Z,78.1
2019-05-09T05:05:22.220Z,77.7
2019-05-09T05:06:10.420Z,77.8
2019-05-09T05:06:58.749Z,77.9
2019-05-09T05:07:52.225Z,77.6
2019-05-09T05:08:40.978Z,77.5
2019-05-09T05:09:28.641Z,77.6
2019-05-09T05:10:09.502Z,77.6
2019-05-09T05:10:11.733Z,77.4
2019-05-09T05:10:59.891Z,77.2
2019-05-09T05:11:53.481Z,77.4
2019-05-09T05:12:42.281Z,77.2
2019-05-09T05:13:29.912Z,77.1
2019-05-09T05:14:18.090Z,77.1
2019-05-09T05:15:08.035Z,77.1
2019-05-09T05:15:59.891Z,77.0
2019-05-09T05:16:53.553Z,77.0
2019-05-09T05:17:37.792Z,76.9
2019-05-09T05:18:24.533Z,76.7
2019-05-09T05:19:12.738Z,76.5
2019-05-09T05:20:08.215Z,76.7
2019-05-09T05:20:57.441Z,76.7
2019-05-09T05:21:42.721Z,76.9
2019-05-09T05:22:30.960Z,76.8
2019-05-09T05:23:19.144Z,76.9
2019-05-09T05:24:12.736Z,76.9
2019-05-09T05:25:01.539Z,76.8
2019-05-09T05:25:49.218Z,76.5
2019-05-09T05:26:38.045Z,76.8
2019-05-09T05:27:27.670Z,76.9
2019-05-09T05:28:19.152Z,76.9
2019-05-09T05:29:08.529Z,76.6
2019-05-09T05:29:55.555Z,76.7
2019-05-09T05:30:43.764Z,76.2
2019-05-09T05:31:31.977Z,76.5
2019-05-09T05:32:28.070Z,76.3
2019-05-09T05:33:14.313Z,76.2
2019-05-09T05:34:01.986Z,76.1
2019-05-09T05:34:50.185Z,75.7
2019-05-09T05:35:38.401Z,75.9
2019-05-09T05:36:31.971Z,75.8
2019-05-09T05:37:20.750Z,75.6
2019-05-09T05:38:08.721Z,75.2
2019-05-09T05:38:58.499Z,74.8
2019-05-09T05:39:44.841Z,74.6
2019-05-09T05:40:44.923Z,75.0
2019-05-09T05:41:28.490Z,75.0
2019-05-09T05:42:14.853Z,75.2
2019-05-09T05:43:03.070Z,75.3
2019-05-09T05:43:51.281Z,75.4
2019-05-09T05:44:44.831Z,75.3
2019-05-09T05:45:33.665Z,75.4
2019-05-09T05:46:21.249Z,75.4
2019-05-09T05:47:09.466Z,75.2
2019-05-09T05:47:57.831Z,75.1
2019-05-09T05:48:51.259Z,75.4
2019-05-09T05:49:40.072Z,75.7
2019-05-09T05:50:28.173Z,75.4
2019-05-09T05:51:15.900Z,75.1
2019-05-09T05:52:04.130Z,74.9
2019-05-09T05:52:57.913Z,74.6
2019-05-09T05:53:48.123Z,74.7
2019-05-09T05:54:34.113Z,74.9
2019-05-09T05:55:22.330Z,74.8
2019-05-09T05:56:10.599Z,74.8
2019-05-09T05:57:04.072Z,74.7
2019-05-09T05:57:52.998Z,74.4
2019-05-09T05:58:40.498Z,74.4
2019-05-09T05:59:28.908Z,74.0
2019-05-09T06:00:18.082Z,74.1
2019-05-09T06:01:10.527Z,74.3
2019-05-09T06:01:59.344Z,73.8
2019-05-09T06:02:47.839Z,73.7
2019-05-09T06:03:37.487Z,74.1
2019-05-09T06:04:23.384Z,74.3
2019-05-09T06:05:18.672Z,74.0
2019-05-09T06:06:05.753Z,73.9
2019-05-09T06:06:53.509Z,73.2
2019-05-09T06:07:41.623Z,73.0
2019-05-09T06:08:29.857Z,73.0
2019-05-09T06:09:23.428Z,72.7
2019-05-09T06:10:12.289Z,72.6
2019-05-09T06:10:59.879Z,72.8
2019-05-09T06:11:48.587Z,72.9
2019-05-09T06:12:38.112Z,72.7
2019-05-09T06:13:29.872Z,72.7
2019-05-09T06:14:18.827Z,72.7
2019-05-09T06:15:07.561Z,73.0
2019-05-09T06:15:54.544Z,73.1
2019-05-09T06:16:42.777Z,73.2
2019-05-09T06:17:37.931Z,73.1
2019-05-09T06:18:27.476Z,73.1
2019-05-09T06:19:12.781Z,73.0
2019-05-09T06:20:01.019Z,72.8
2019-05-09T06:20:49.213Z,73.3
2019-05-09T06:21:42.804Z,73.5
2019-05-09T06:22:31.618Z,73.1
2019-05-09T06:23:19.342Z,73.3
2019-05-09T06:24:08.590Z,73.5
2019-05-09T06:24:38.708Z,73.5
2019-05-09T06:24:48.588Z,72.7
2019-05-09T06:25:42.173Z,72.8
2019-05-09T06:26:31.011Z,72.8
2019-05-09T06:27:18.607Z,73.0
2019-05-09T06:28:07.642Z,72.8
2019-05-09T06:28:55.046Z,72.8
2019-05-09T06:29:48.622Z,72.6
2019-05-09T06:30:40.831Z,72.2
2019-05-09T06:31:25.058Z,72.1
2019-05-09T06:32:13.261Z,71.8
2019-05-09T06:33:04.586Z,71.8
2019-05-09T06:33:57.584Z,71.9
2019-05-09T06:34:43.903Z,71.3
2019-05-09T06:35:31.490Z,71.3
2019-05-09T06:36:10.642Z,71.4
2019-05-09T06:37:02.590Z,70.4
2019-05-09T06:37:52.489Z,70.1
2019-05-09T06:38:41.248Z,70.3
2019-05-09T06:39:28.884Z,69.9
2019-05-09T06:40:18.450Z,69.6
2019-05-09T06:41:05.319Z,69.5
2019-05-09T06:41:58.951Z,68.1
2019-05-09T06:42:52.675Z,68.6
2019-05-09T06:43:35.365Z,68.7
2019-05-09T06:43:39.522Z,68.7
2019-05-09T06:44:18.174Z,68.6
2019-05-09T06:45:03.398Z,68.7
2019-05-09T06:45:57.561Z,68.9
2019-05-09T06:46:48.136Z,69.2
2019-05-09T06:47:33.460Z,69.0
2019-05-09T06:48:21.675Z,68.6
2019-05-09T06:49:24.772Z,68.5
2019-05-09T06:50:03.493Z,68.2
2019-05-09T06:50:52.275Z,68.2
2019-05-09T06:51:39.959Z,68.2
2019-05-09T06:52:28.347Z,68.0
2019-05-09T06:53:18.129Z,67.6
2019-05-09T06:54:09.994Z,66.9
2019-05-09T06:54:58.910Z,67.1
2019-05-09T06:55:47.613Z,66.9
2019-05-09T06:56:34.670Z,66.9
2019-05-09T06:57:22.869Z,67.3
2019-05-09T06:58:18.368Z,67.1
2019-05-09T06:59:07.471Z,67.1
2019-05-09T06:59:52.912Z,67.0
2019-05-09T07:00:41.118Z,66.9
2019-05-09T07:01:29.342Z,66.1
2019-05-09T07:02:22.969Z,66.2
2019-05-09T07:03:11.854Z,66.5
2019-05-09T07:03:59.418Z,66.5
2019-05-09T07:04:47.735Z,66.5
2019-05-09T07:05:35.845Z,66.2
2019-05-09T07:06:29.433Z,65.4
2019-05-09T07:07:18.229Z,65.0
2019-05-09T07:08:07.996Z,65.3
2019-05-09T07:08:54.145Z,65.3
2019-05-09T07:09:42.458Z,65.6
2019-05-09T07:10:37.741Z,65.7
2019-05-09T07:11:24.770Z,65.5
2019-05-09T07:12:12.376Z,65.5
2019-05-09T07:13:01.046Z,65.6
2019-05-09T07:13:48.856Z,65.5
2019-05-09T07:14:42.438Z,65.3
2019-05-09T07:15:31.192Z,65.5
2019-05-09T07:16:18.886Z,65.7
2019-05-09T07:17:08.184Z,65.5
2019-05-09T07:17:57.458Z,65.2
2019-05-09T07:18:48.934Z,65.2
2019-05-09T07:19:38.516Z,65.2
2019-05-09T07:20:25.436Z,64.9
2019-05-09T07:22:01.992Z,64.9
2019-05-09T07:22:58.273Z,64.8
2019-05-09T07:23:43.685Z,64.2
2019-05-09T07:24:32.026Z,64.3
2019-05-09T07:25:20.870Z,64.2
2019-05-09T07:26:08.399Z,63.7
2019-05-09T07:27:08.173Z,63.7
2019-05-09T07:27:50.192Z,63.8
2019-05-09T07:28:39.468Z,63.9
2019-05-09T07:29:28.450Z,63.4
2019-05-09T07:30:14.917Z,62.8
2019-05-09T07:31:11.563Z,62.9
2019-05-09T07:32:01.890Z,62.7
2019-05-09T07:32:44.936Z,62.6
2019-05-09T07:33:33.773Z,62.3
2019-05-09T07:34:21.457Z,62.0
2019-05-09T07:35:14.996Z,61.6
2019-05-09T07:36:03.240Z,61.3
2019-05-09T07:36:51.509Z,61.4
2019-05-09T07:37:40.285Z,61.5
2019-05-09T07:38:27.968Z,61.0
2019-05-09T07:39:21.570Z,61.1
2019-05-09T07:40:09.795Z,60.4
2019-05-09T07:40:58.170Z,60.0
2019-05-09T07:41:47.816Z,59.6
2019-05-09T07:42:34.538Z,59.7
2019-05-09T07:43:28.278Z,59.3
2019-05-09T07:44:18.212Z,59.1
2019-05-09T07:45:04.626Z,59.4
2019-05-09T07:45:53.466Z,59.1
2019-05-09T07:46:41.166Z,58.6
2019-05-09T07:47:34.769Z,58.6
2019-05-09T07:48:22.988Z,59.1
2019-05-09T07:49:11.240Z,59.0
2019-05-09T07:50:00.066Z,59.3
2019-05-09T07:50:48.151Z,59.2
2019-05-09T07:51:41.359Z,59.7
2019-05-09T07:52:29.625Z,59.5
2019-05-09T07:53:17.891Z,59.0
2019-05-09T07:54:20.600Z,59.3
2019-05-09T07:54:54.392Z,59.5
2019-05-09T07:55:47.993Z,59.4
2019-05-09T07:56:37.829Z,59.1
2019-05-09T07:57:24.516Z,59.0
2019-05-09T07:58:14.438Z,59.1
2019-05-09T07:59:01.035Z,59.3
2019-05-09T07:59:51.218Z,59.3
2019-05-09T07:59:54.628Z,59.6
2019-05-09T08:00:42.906Z,59.4
2019-05-09T08:01:31.143Z,59.2
2019-05-09T08:02:19.960Z,59.2
2019-05-09T08:03:12.136Z,58.9
2019-05-09T08:04:01.258Z,58.7
2019-05-09T08:04:49.523Z,58.4
2019-05-09T08:05:38.507Z,58.2
2019-05-09T08:06:28.658Z,58.2
2019-05-09T08:07:14.314Z,57.3
2019-05-09T08:08:08.149Z,56.7
2019-05-09T08:08:58.107Z,56.6
2019-05-09T08:09:44.428Z,56.8
2019-05-09T08:10:33.553Z,56.9
2019-05-09T08:11:20.957Z,57.2
2019-05-09T08:12:14.547Z,56.7
2019-05-09T08:13:02.810Z,56.1
2019-05-09T08:13:51.066Z,56.0
2019-05-09T08:14:39.953Z,56.3
2019-05-09T08:15:28.185Z,56.3
2019-05-09T08:16:21.221Z,56.0
2019-05-09T08:17:09.472Z,56.4
2019-05-09T08:17:59.195Z,56.3
2019-05-09T08:18:48.333Z,56.6
2019-05-09T08:19:34.245Z,55.9
2019-05-09T08:20:28.058Z,56.2
2019-05-09T08:21:18.043Z,56.2
2019-05-09T08:22:04.389Z,56.5
2019-05-09T08:22:58.635Z,56.1
2019-05-09T08:23:40.898Z,56.1
2019-05-09T08:24:34.578Z,55.8
2019-05-09T08:25:22.784Z,55.9
2019-05-09T08:26:11.089Z,56.3
2019-05-09T08:26:59.880Z,56.4
2019-05-09T08:27:48.361Z,56.5
2019-05-09T08:28:41.198Z,56.5
2019-05-09T08:29:29.468Z,56.0
2019-05-09T08:30:18.074Z,56.1
2019-05-09T08:31:08.256Z,54.4
2019-05-09T08:31:54.260Z,55.0
2019-05-09T08:32:48.400Z,55.5
2019-05-09T08:33:38.099Z,55.1
2019-05-09T08:34:24.477Z,55.5
2019-05-09T08:35:13.350Z,55.6
2019-05-09T08:36:00.997Z,55.3
2019-05-09T08:36:54.615Z,55.4
2019-05-09T08:37:42.883Z,55.3
2019-05-09T08:38:31.152Z,55.4
2019-05-09T08:39:20.487Z,55.1
2019-05-09T08:40:08.193Z,54.3
2019-05-09T08:41:01.342Z,54.3
2019-05-09T08:41:49.622Z,53.3
2019-05-09T08:42:38.037Z,53.5
2019-05-09T08:43:28.325Z,52.5
2019-05-09T08:44:14.419Z,52.5
2019-05-09T08:45:17.325Z,51.5
2019-05-09T08:45:57.605Z,50.8
2019-05-09T08:46:44.603Z,51.4
2019-05-09T08:47:33.435Z,51.8
2019-05-09T08:48:21.159Z,51.8
2019-05-09T08:49:14.789Z,51.8
2019-05-09T08:50:03.056Z,52.1
2019-05-09T08:50:51.344Z,52.0
2019-05-09T08:51:52.649Z,51.9
2019-05-09T08:52:28.786Z,51.1
2019-05-09T08:53:21.537Z,50.6
2019-05-09T08:54:09.794Z,50.2
2019-05-09T08:54:58.081Z,49.6
2019-05-09T08:55:47.536Z,50.0
2019-05-09T08:56:34.630Z,50.1
2019-05-09T08:57:28.969Z,50.9
2019-05-09T08:58:19.573Z,50.7
2019-05-09T08:59:04.848Z,50.9
2019-05-09T08:59:53.648Z,51.0
2019-05-09T09:00:41.400Z,51.0
2019-05-09T09:02:04.559Z,51.7
2019-05-09T09:02:23.322Z,51.2
2019-05-09T09:03:11.568Z,51.4
2019-05-09T09:04:01.380Z,51.9
2019-05-09T09:04:48.816Z,51.5
2019-05-09T09:05:43.365Z,51.5
2019-05-09T09:05:48.356Z,51.5
2019-05-09T09:06:27.700Z,51.9
2019-05-09T09:07:13.242Z,52.0
2019-05-09T09:08:02.089Z,51.9
2019-05-09T09:08:49.817Z,52.1
2019-05-09T09:09:43.482Z,51.7
2019-05-09T09:10:31.717Z,51.3
2019-05-09T09:11:20.026Z,51.5
2019-05-09T09:12:22.941Z,51.3
2019-05-09T09:12:58.119Z,51.0
2019-05-09T09:13:50.191Z,51.2
2019-05-09T09:14:38.686Z,50.4
2019-05-09T09:15:54.635Z,50.7
2019-05-09T09:16:19.902Z,50.2
2019-05-09T09:17:03.326Z,49.5
2019-05-09T09:17:57.879Z,49.2
2019-05-09T09:18:47.859Z,49.1
2019-05-09T09:19:33.534Z,48.5
2019-05-09T09:20:22.407Z,48.3
2019-05-09T09:21:10.074Z,48.1
2019-05-09T09:22:03.765Z,47.9
2019-05-09T09:22:52.052Z,48.4
2019-05-09T09:22:59.564Z,48.4
2019-05-09T09:23:43.901Z,48.5
2019-05-09T09:24:28.354Z,48.4
2019-05-09T09:25:14.747Z,48.7
2019-05-09T09:26:08.376Z,48.1
2019-05-09T09:26:57.374Z,48.2
2019-05-09T09:27:50.172Z,48.1
2019-05-09T09:28:33.835Z,47.6
2019-05-09T09:29:21.560Z,47.9
2019-05-09T09:30:21.811Z,48.5
2019-05-09T09:31:03.465Z,47.6
2019-05-09T09:31:51.755Z,48.0
2019-05-09T09:32:40.611Z,48.3
2019-05-09T09:33:28.379Z,48.8
2019-05-09T09:34:21.998Z,48.5
2019-05-09T09:35:10.272Z,48.4
2019-05-09T09:35:58.568Z,48.5
2019-05-09T09:36:48.060Z,48.9
2019-05-09T09:37:48.159Z,48.2
2019-05-09T09:38:28.781Z,48.5
2019-05-09T09:39:18.512Z,49.0
2019-05-09T09:40:05.371Z,49.5
2019-05-09T09:40:54.227Z,50.1
2019-05-09T09:41:41.951Z,50.5
2019-05-09T09:42:39.396Z,49.4
2019-05-09T09:43:23.860Z,48.7
2019-05-09T09:44:12.168Z,49.1
2019-05-09T09:45:01.413Z,49.4
2019-05-09T09:46:05.841Z,49.5
2019-05-09T09:46:42.348Z,49.6
2019-05-09T09:47:30.629Z,49.8
2019-05-09T09:48:18.904Z,49.3
2019-05-09T09:49:08.210Z,49.4
2019-05-09T09:49:58.398Z,49.2
2019-05-09T09:50:51.771Z,48.6
2019-05-09T09:51:38.275Z,48.9
2019-05-09T09:52:25.649Z,49.3
2019-05-09T09:53:14.553Z,49.1
2019-05-09T09:54:02.225Z,48.8
2019-05-09T09:54:58.140Z,48.0
2019-05-09T09:55:44.144Z,47.4
2019-05-09T09:56:32.430Z,47.6
2019-05-09T09:57:21.279Z,47.5
2019-05-09T09:58:08.999Z,46.5
2019-05-09T09:59:02.642Z,47.3
2019-05-09T09:59:51.049Z,47.7
2019-05-09T10:00:39.261Z,47.2
2019-05-09T10:01:28.896Z,46.9
2019-05-09T10:02:15.817Z,46.5
2019-05-09T10:03:09.459Z,46.7
2019-05-09T10:04:02.721Z,46.2
2019-05-09T10:04:46.071Z,46.3
2019-05-09T10:05:34.930Z,46.2
2019-05-09T10:06:22.626Z,46.2
2019-05-09T10:07:18.841Z,45.6
2019-05-09T10:08:04.649Z,45.9
2019-05-09T10:08:52.890Z,46.3
2019-05-09T10:09:42.018Z,46.0
2019-05-09T10:10:29.519Z,46.2
2019-05-09T10:12:11.506Z,45.6
2019-05-09T10:13:03.712Z,44.9
2019-05-09T10:13:51.535Z,44.8
2019-05-09T10:14:37.050Z,45.0
2019-05-09T10:15:30.150Z,44.9
2019-05-09T10:16:29.149Z,44.2
2019-05-09T10:17:10.149Z,44.5
2019-05-09T10:17:55.102Z,44.6
2019-05-09T10:18:45.355Z,44.5
2019-05-09T10:19:38.397Z,44.0
2019-05-09T10:20:25.409Z,43.4
2019-05-09T10:21:13.722Z,43.3
2019-05-09T10:22:02.085Z,42.3
2019-05-09T10:22:59.406Z,41.4
2019-05-09T10:26:57.493Z,43.1
2019-05-09T10:31:04.611Z,41.6
2019-05-09T10:35:11.666Z,40.7
2019-05-09T10:36:08.215Z,41.2
2019-05-09T10:36:54.292Z,41.4
2019-05-09T10:41:01.995Z,40.3
2019-05-09T10:41:49.121Z,40.7
2019-05-09T10:42:38.027Z,41.1
2019-05-09T10:43:35.841Z,41.0
2019-05-09T10:45:57.830Z,42.3
2019-05-09T10:47:32.883Z,43.3
2019-05-09T10:47:41.245Z,43.3
2019-05-09T10:49:13.517Z,44.4
2019-05-09T10:50:01.838Z,44.4
2019-05-09T10:50:53.853Z,44.4
2019-05-09T10:51:40.474Z,45.2
2019-05-09T10:57:31.810Z,47.0
2019-05-09T10:58:15.806Z,47.3
2019-05-09T10:59:52.971Z,47.8
2019-05-09T11:01:34.428Z,48.3
2019-05-09T11:02:23.391Z,48.3
2019-05-09T11:03:59.485Z,48.5
2019-05-09T11:04:53.027Z,48.3
2019-05-09T11:05:41.350Z,48.7
2019-05-09T11:06:29.684Z,48.6
2019-05-09T11:07:18.538Z,48.4